Time;durP1;ratioP1;P1;durP2;ratioP2;P2;SDS_P1;SDS_P2;PMS_P1;PMS_P2;Temp;Humidity;BMP_temperature;BMP_pressure;BME280_temperature;BME280_humidity;BME280_pressure;Samples;Min_cycle;Max_cycle;Signal;HPM_P1;HPM_P2
2023/06/02 00:09:39;;;;;;;8.35;5.35;;;;;;;14.51;56.55;99990.06;30851370;28;96690;-71
2023/06/02 00:24:42;;;;;;;10.67;5.07;;;;;;;14.33;57.15;99992.47;30856946;28;96828;-69
2023/06/02 00:39:43;;;;;;;9.43;4.70;;;;;;;14.14;57.55;99991.38;30870830;28;96643;-69
2023/06/02 00:54:43;;;;;;;7.43;4.18;;;;;;;13.97;58.22;100007.75;30868548;28;96970;-71
2023/06/02 01:09:44;;;;;;;7.68;4.38;;;;;;;13.80;59.02;100007.22;30867500;28;96714;-71
2023/06/02 01:24:44;;;;;;;10.50;4.80;;;;;;;13.67;59.21;100012.50;30865749;28;97355;-71
2023/06/02 01:39:47;;;;;;;10.95;5.10;;;;;;;13.46;59.74;100016.84;30864867;28;96697;-70
2023/06/02 01:54:48;;;;;;;12.80;4.83;;;;;;;13.29;60.11;100013.59;30863631;28;96637;-70
2023/06/02 02:09:48;;;;;;;7.72;5.07;;;;;;;13.06;60.51;100013.00;30862626;28;96803;-71
2023/06/02 02:24:50;;;;;;;12.77;5.57;;;;;;;12.69;61.12;100013.81;30860279;28;96665;-71
2023/06/02 02:39:50;;;;;;;12.03;5.33;;;;;;;12.35;62.09;100025.94;30858458;28;96945;-71
2023/06/02 02:54:50;;;;;;;12.52;6.05;;;;;;;12.18;63.34;100020.00;30855381;28;96848;-68
2023/06/02 03:09:51;;;;;;;17.45;6.30;;;;;;;12.19;63.27;100035.00;30853930;28;96896;-69
2023/06/02 03:24:51;;;;;;;14.10;6.63;;;;;;;12.35;64.17;100043.84;30853553;28;102034;-70
2023/06/02 03:39:51;;;;;;;14.30;6.13;;;;;;;12.56;64.14;100055.59;30851719;28;113530;-71
2023/06/02 03:54:52;;;;;;;9.18;5.78;;;;;;;12.75;64.24;100060.34;30851047;28;108509;-70
2023/06/02 04:09:53;;;;;;;8.73;5.03;;;;;;;13.50;63.92;100074.31;30868941;28;96861;-69
2023/06/02 04:24:53;;;;;;;14.18;4.53;;;;;;;14.29;62.38;100087.69;30860933;28;97091;-68
2023/06/02 04:39:55;;;;;;;14.68;5.00;;;;;;;14.86;61.50;100094.59;30860307;28;97194;-71
2023/06/02 04:54:55;;;;;;;9.83;4.90;;;;;;;15.20;60.20;100095.50;30863334;28;97065;-67
2023/06/02 05:09:56;;;;;;;8.95;3.53;;;;;;;15.83;59.25;100102.44;30863105;28;98521;-66
2023/06/02 05:24:56;;;;;;;13.40;4.38;;;;;;;16.57;57.50;100111.19;30863225;28;97446;-65
2023/06/02 05:39:56;;;;;;;11.45;3.78;;;;;;;17.04;56.20;100118.28;30860248;28;96802;-65
2023/06/02 05:54:57;;;;;;;6.43;2.70;;;;;;;17.47;54.88;100123.00;30858607;28;96982;-65
2023/06/02 06:09:57;;;;;;;12.02;2.97;;;;;;;18.17;53.70;100119.38;30857347;28;96729;-66
2023/06/02 06:24:58;;;;;;;11.15;2.45;;;;;;;19.00;50.74;100124.47;30855707;28;103770;-67
2023/06/02 06:39:58;;;;;;;6.60;2.20;;;;;;;20.07;48.50;100125.63;30854702;28;96687;-67
2023/06/02 06:54:58;;;;;;;7.18;2.33;;;;;;;20.87;45.79;100145.78;30851510;28;108288;-67
2023/06/02 07:09:59;;;;;;;7.23;2.40;;;;;;;21.75;42.82;100153.66;30851588;28;99662;-67
2023/06/02 07:25:00;;;;;;;7.70;2.47;;;;;;;21.22;41.74;100169.22;30850288;28;99245;-67
2023/06/02 07:40:00;;;;;;;5.80;2.53;;;;;;;21.38;42.13;100164.06;30850477;28;97144;-66
2023/06/02 07:55:02;;;;;;;8.70;3.70;;;;;;;21.93;40.85;100176.19;30849859;28;97431;-69
2023/06/02 08:10:02;;;;;;;6.53;2.53;;;;;;;22.98;39.61;100189.94;30848842;28;97378;-67
2023/06/02 08:25:03;;;;;;;10.35;2.67;;;;;;;23.33;37.16;100185.19;30848740;28;97336;-64
2023/06/02 08:40:05;;;;;;;6.50;2.28;;;;;;;24.32;35.14;100199.44;30847106;28;96766;-66
2023/06/02 08:55:06;;;;;;;6.43;2.23;;;;;;;24.12;34.34;100197.38;30859786;28;97728;-65
2023/06/02 09:10:07;;;;;;;5.70;2.37;;;;;;;23.36;34.55;100206.44;30863546;28;96834;-66
2023/06/02 09:25:20;;;;;;;;;;;;;;;23.94;34.47;100209.47;30862068;28;96697;-65
2023/06/02 09:40:27;;;;;;;6.40;2.50;;;;;;;23.95;33.81;100219.28;30862074;28;97052;-64
2023/06/02 09:55:31;;;;;;;7.63;3.10;;;;;;;24.15;33.47;100234.97;30857156;28;97051;-65
2023/06/02 10:11:02;;;;;;;8.17;3.10;;;;;;;24.79;31.56;100224.25;30857924;28;97420;-65
2023/06/02 10:26:30;;;;;;;7.07;2.50;;;;;;;24.58;31.73;100226.84;30857835;28;97351;-65
2023/06/02 10:42:04;;;;;;;5.87;2.30;;;;;;;24.74;32.82;100235.97;30856137;28;96739;-66
2023/06/02 10:57:05;;;;;;;6.27;2.30;;;;;;;24.93;32.40;100244.50;30855555;28;97195;-65
2023/06/02 11:12:05;;;;;;;6.07;2.42;;;;;;;25.78;32.22;100239.88;30853239;28;96912;-65
2023/06/02 11:27:06;;;;;;;8.98;2.85;;;;;;;24.53;32.82;100242.31;30853338;28;98998;-66
2023/06/02 11:42:07;;;;;;;7.50;2.43;;;;;;;25.63;31.63;100255.16;30851909;28;96738;-65
2023/06/02 11:57:08;;;;;;;8.60;2.42;;;;;;;24.45;33.27;100289.91;30848230;28;96856;-66
2023/06/02 12:12:08;;;;;;;7.72;3.10;;;;;;;22.92;35.24;100296.91;30848521;28;97205;-65
2023/06/02 12:27:10;;;;;;;5.50;2.83;;;;;;;21.73;37.67;100295.97;30859402;28;97315;-65
2023/06/02 12:42:14;;;;;;;7.53;3.37;;;;;;;23.12;37.09;100298.25;30854285;28;97338;-65
2023/06/02 12:57:15;;;;;;;5.83;2.10;;;;;;;25.22;34.09;100309.50;30855933;28;97397;-68
2023/06/02 13:12:15;;;;;;;3.83;1.75;;;;;;;25.15;33.63;100317.91;30863299;28;97223;-70
2023/06/02 13:27:16;;;;;;;8.45;2.60;;;;;;;24.48;34.10;100338.38;30810350;28;97965;-67
2023/06/02 13:42:16;;;;;;;5.13;2.67;;;;;;;23.42;34.79;100340.53;30762579;28;98591;-66
2023/06/02 13:57:16;;;;;;;;;;;;;;;23.76;34.30;100340.41;30746629;28;96828;-66
2023/06/02 14:12:17;;;;;;;7.57;2.30;;;;;;;23.77;34.43;100337.41;30806130;28;97425;-67
2023/06/02 14:27:17;;;;;;;7.07;1.85;;;;;;;23.54;33.85;100349.38;30767987;28;97659;-66
2023/06/02 14:42:17;;;;;;;;;;;;;;;22.35;34.01;100351.34;30730825;28;97159;-65
2023/06/02 14:57:18;;;;;;;7.10;1.50;;;;;;;21.75;35.08;100357.00;30733899;28;96782;-65
2023/06/02 15:12:18;;;;;;;5.57;1.40;;;;;;;21.55;35.56;100373.66;30733472;28;96731;-66
2023/06/02 15:27:20;;;;;;;3.97;1.77;;;;;;;20.76;37.25;100385.69;30732190;28;97380;-65
2023/06/02 15:42:20;;;;;;;4.93;1.50;;;;;;;20.73;36.89;100396.16;30730289;28;108474;-65
2023/06/02 15:57:20;;;;;;;5.23;1.30;;;;;;;20.23;36.85;100387.28;30735288;28;97408;-65
2023/06/02 16:12:21;;;;;;;8.77;1.70;;;;;;;19.95;37.39;100390.56;30749931;28;96778;-65
2023/06/02 16:27:21;;;;;;;6.43;1.58;;;;;;;19.47;38.00;100394.81;30746203;28;96633;-65
2023/06/02 16:42:21;;;;;;;3.83;1.13;;;;;;;18.84;38.23;100393.91;30745654;28;96689;-67
2023/06/02 16:57:22;;;;;;;2.83;1.40;;;;;;;18.48;38.93;100403.53;30742750;28;97273;-66
2023/06/02 17:12:22;;;;;;;5.03;1.20;;;;;;;18.08;39.68;100401.88;30739294;28;107716;-66
2023/06/02 17:27:22;;;;;;;3.05;1.30;;;;;;;17.56;40.17;100420.69;30742568;28;104034;-67
2023/06/02 17:42:23;;;;;;;5.30;1.40;;;;;;;17.08;40.58;100437.91;30742193;28;97345;-66
2023/06/02 17:57:23;;;;;;;5.05;1.52;;;;;;;16.64;41.59;100454.63;30740776;28;97686;-66
2023/06/02 18:12:24;;;;;;;3.75;1.60;;;;;;;16.18;41.68;100465.03;30759443;28;101912;-66
2023/06/02 18:27:25;;;;;;;7.13;2.07;;;;;;;15.64;41.92;100485.34;30805905;28;98737;-66
2023/06/02 18:42:25;;;;;;;4.68;1.65;;;;;;;15.18;42.29;100505.44;30811867;28;112845;-67
2023/06/02 18:57:25;;;;;;;4.28;2.03;;;;;;;14.59;42.99;100516.38;30820330;28;100737;-66
2023/06/02 19:12:26;;;;;;;6.50;2.00;;;;;;;14.01;42.85;100533.13;30723156;28;96773;-64
2023/06/02 19:27:26;;;;;;;4.22;1.35;;;;;;;13.58;41.92;100557.00;30787132;28;97481;-67
2023/06/02 19:42:27;;;;;;;3.58;1.35;;;;;;;13.06;42.08;100588.78;30780856;28;99456;-66
2023/06/02 19:57:27;;;;;;;5.40;1.40;;;;;;;12.67;41.24;100587.00;30842849;28;97531;-65
2023/06/02 20:12:27;;;;;;;5.18;1.20;;;;;;;12.29;39.77;100608.19;30796965;28;96828;-66
2023/06/02 20:27:28;;;;;;;5.43;1.50;;;;;;;11.82;39.17;100621.25;30777198;28;97120;-65
2023/06/02 20:42:28;;;;;;;4.55;1.50;;;;;;;11.43;38.62;100632.59;30786103;28;98085;-66
2023/06/02 20:57:28;;;;;;;8.48;1.35;;;;;;;11.01;39.31;100660.97;30740834;28;98449;-66
2023/06/02 21:12:29;;;;;;;4.15;1.55;;;;;;;10.68;39.65;100673.34;30743240;28;97683;-66
2023/06/02 21:27:29;;;;;;;4.15;1.15;;;;;;;10.32;40.36;100684.13;30745400;28;97339;-66
2023/06/02 21:42:30;;;;;;;4.07;1.52;;;;;;;10.00;41.44;100682.88;30744094;28;108904;-64
2023/06/02 21:57:30;;;;;;;9.65;1.98;;;;;;;9.65;41.50;100696.03;30743025;28;96842;-66
2023/06/02 22:12:30;;;;;;;3.50;1.50;;;;;;;9.38;42.47;100699.59;30742071;28;97229;-65
2023/06/02 22:27:31;;;;;;;2.28;1.13;;;;;;;9.12;42.70;100707.44;30740184;28;96681;-65
2023/06/02 22:42:31;;;;;;;3.47;1.33;;;;;;;8.85;43.58;100714.41;30739579;28;97246;-64
2023/06/02 22:57:31;;;;;;;3.90;2.15;;;;;;;8.63;43.88;100718.28;30737575;28;111894;-65
2023/06/02 23:12:32;;;;;;;5.20;1.30;;;;;;;8.45;44.00;100718.19;30735569;28;97091;-64
2023/06/02 23:27:32;;;;;;;5.75;1.70;;;;;;;8.26;44.97;100737.63;30736298;28;97708;-64
2023/06/02 23:42:35;;;;;;;4.65;1.25;;;;;;;8.08;45.23;100740.16;30734595;28;101031;-63
2023/06/02 23:57:36;;;;;;;2.57;1.10;;;;;;;7.87;46.07;100756.19;30733779;28;96687;-63
